sensor_id;sensor_type;location;lat;lon;timestamp;temperature;humidity
57108;DHT22;42987;52.916;6.542;2023-02-28T00:00:50;3.70;99.90
57108;DHT22;42987;52.916;6.542;2023-02-28T00:03:16;3.70;99.90
57108;DHT22;42987;52.916;6.542;2023-02-28T00:05:42;3.70;99.90
57108;DHT22;42987;52.916;6.542;2023-02-28T00:08:08;3.70;99.90
57108;DHT22;42987;52.916;6.542;2023-02-28T00:10:34;3.80;99.90
57108;DHT22;42987;52.916;6.542;2023-02-28T00:13:05;3.70;99.90
57108;DHT22;42987;52.916;6.542;2023-02-28T00:15:31;3.70;99.90
57108;DHT22;42987;52.916;6.542;2023-02-28T00:17:57;3.70;99.90
57108;DHT22;42987;52.916;6.542;2023-02-28T00:20:23;3.70;99.90
57108;DHT22;42987;52.916;6.542;2023-02-28T00:22:51;3.70;99.90
57108;DHT22;42987;52.916;6.542;2023-02-28T00:25:19;3.80;99.90
57108;DHT22;42987;52.916;6.542;2023-02-28T00:27:46;3.80;99.90
57108;DHT22;42987;52.916;6.542;2023-02-28T00:30:15;3.80;99.90
57108;DHT22;42987;52.916;6.542;2023-02-28T00:32:41;3.80;99.90
57108;DHT22;42987;52.916;6.542;2023-02-28T00:35:08;3.80;99.90
57108;DHT22;42987;52.916;6.542;2023-02-28T00:37:34;3.80;99.90
57108;DHT22;42987;52.916;6.542;2023-02-28T00:40:00;3.80;99.90
57108;DHT22;42987;52.916;6.542;2023-02-28T00:42:27;3.80;99.90
57108;DHT22;42987;52.916;6.542;2023-02-28T00:44:53;3.80;99.90
57108;DHT22;42987;52.916;6.542;2023-02-28T00:47:19;3.80;99.90
57108;DHT22;42987;52.916;6.542;2023-02-28T00:49:45;3.90;99.90
57108;DHT22;42987;52.916;6.542;2023-02-28T00:52:11;3.80;99.90
57108;DHT22;42987;52.916;6.542;2023-02-28T00:54:37;3.80;99.90
57108;DHT22;42987;52.916;6.542;2023-02-28T00:57:02;3.80;99.90
57108;DHT22;42987;52.916;6.542;2023-02-28T00:59:28;3.80;99.90
57108;DHT22;42987;52.916;6.542;2023-02-28T01:01:57;3.80;99.90
57108;DHT22;42987;52.916;6.542;2023-02-28T01:04:23;3.80;99.90
57108;DHT22;42987;52.916;6.542;2023-02-28T01:06:49;3.80;99.90
57108;DHT22;42987;52.916;6.542;2023-02-28T01:09:15;3.80;99.90
57108;DHT22;42987;52.916;6.542;2023-02-28T01:11:41;3.90;99.90
57108;DHT22;42987;52.916;6.542;2023-02-28T01:14:14;3.80;99.90
57108;DHT22;42987;52.916;6.542;2023-02-28T01:16:46;3.90;99.90
57108;DHT22;42987;52.916;6.542;2023-02-28T01:19:12;3.80;99.90
57108;DHT22;42987;52.916;6.542;2023-02-28T01:21:38;3.80;99.90
57108;DHT22;42987;52.916;6.542;2023-02-28T01:24:05;3.80;99.90
57108;DHT22;42987;52.916;6.542;2023-02-28T01:26:31;3.80;99.90
57108;DHT22;42987;52.916;6.542;2023-02-28T01:28:57;3.80;99.90
57108;DHT22;42987;52.916;6.542;2023-02-28T01:31:23;3.80;99.90
57108;DHT22;42987;52.916;6.542;2023-02-28T01:33:52;3.80;99.90
57108;DHT22;42987;52.916;6.542;2023-02-28T01:36:25;3.80;99.90
57108;DHT22;42987;52.916;6.542;2023-02-28T01:38:51;3.80;99.90
57108;DHT22;42987;52.916;6.542;2023-02-28T01:41:24;3.80;99.90
57108;DHT22;42987;52.916;6.542;2023-02-28T01:43:57;3.80;99.90
57108;DHT22;42987;52.916;6.542;2023-02-28T01:46:26;3.80;99.90
57108;DHT22;42987;52.916;6.542;2023-02-28T01:49:00;3.70;99.90
57108;DHT22;42987;52.916;6.542;2023-02-28T01:51:32;3.80;99.90
57108;DHT22;42987;52.916;6.542;2023-02-28T01:54:08;3.70;99.90
57108;DHT22;42987;52.916;6.542;2023-02-28T01:56:43;3.70;99.90
57108;DHT22;42987;52.916;6.542;2023-02-28T01:59:10;3.70;99.90
57108;DHT22;42987;52.916;6.542;2023-02-28T02:01:37;3.70;99.90
57108;DHT22;42987;52.916;6.542;2023-02-28T02:04:03;3.70;99.90
57108;DHT22;42987;52.916;6.542;2023-02-28T02:06:43;3.70;99.90
57108;DHT22;42987;52.916;6.542;2023-02-28T02:09:10;3.70;99.90
57108;DHT22;42987;52.916;6.542;2023-02-28T02:11:36;3.70;99.90
57108;DHT22;42987;52.916;6.542;2023-02-28T02:25:19;3.60;99.90
57108;DHT22;42987;52.916;6.542;2023-02-28T02:30:51;3.60;99.90
57108;DHT22;42987;52.916;6.542;2023-02-28T02:36:17;3.60;99.90
57108;DHT22;42987;52.916;6.542;2023-02-28T02:39:19;3.60;99.90
57108;DHT22;42987;52.916;6.542;2023-02-28T02:41:54;3.70;99.90
57108;DHT22;42987;52.916;6.542;2023-02-28T02:44:49;3.60;99.90
57108;DHT22;42987;52.916;6.542;2023-02-28T02:47:20;3.60;99.90
57108;DHT22;42987;52.916;6.542;2023-02-28T02:49:50;3.60;99.90
57108;DHT22;42987;52.916;6.542;2023-02-28T02:52:20;3.60;99.90
57108;DHT22;42987;52.916;6.542;2023-02-28T02:54:48;3.60;99.90
57108;DHT22;42987;52.916;6.542;2023-02-28T03:00:00;3.60;99.90
57108;DHT22;42987;52.916;6.542;2023-02-28T03:02:29;3.40;99.90
57108;DHT22;42987;52.916;6.542;2023-02-28T03:05:02;3.40;99.90
57108;DHT22;42987;52.916;6.542;2023-02-28T03:07:29;3.40;99.90
57108;DHT22;42987;52.916;6.542;2023-02-28T03:09:57;3.40;99.90
57108;DHT22;42987;52.916;6.542;2023-02-28T03:12:39;3.30;99.90
57108;DHT22;42987;52.916;6.542;2023-02-28T03:15:22;3.30;99.90
57108;DHT22;42987;52.916;6.542;2023-02-28T03:18:04;3.30;99.90
57108;DHT22;42987;52.916;6.542;2023-02-28T03:20:40;3.30;99.90
57108;DHT22;42987;52.916;6.542;2023-02-28T03:23:14;3.30;99.90
57108;DHT22;42987;52.916;6.542;2023-02-28T03:33:35;3.20;99.90
57108;DHT22;42987;52.916;6.542;2023-02-28T03:36:10;3.20;99.90
57108;DHT22;42987;52.916;6.542;2023-02-28T03:41:13;3.20;99.90
57108;DHT22;42987;52.916;6.542;2023-02-28T03:43:43;3.20;99.90
57108;DHT22;42987;52.916;6.542;2023-02-28T03:46:12;3.20;99.90
57108;DHT22;42987;52.916;6.542;2023-02-28T03:48:48;3.20;99.90
57108;DHT22;42987;52.916;6.542;2023-02-28T03:51:18;3.20;99.90
57108;DHT22;42987;52.916;6.542;2023-02-28T03:53:52;3.20;99.90
57108;DHT22;42987;52.916;6.542;2023-02-28T03:56:38;3.20;99.90
57108;DHT22;42987;52.916;6.542;2023-02-28T03:59:15;3.20;99.90
57108;DHT22;42987;52.916;6.542;2023-02-28T04:01:45;3.30;99.90
57108;DHT22;42987;52.916;6.542;2023-02-28T04:04:13;3.10;99.90
57108;DHT22;42987;52.916;6.542;2023-02-28T04:06:40;3.10;99.90
57108;DHT22;42987;52.916;6.542;2023-02-28T04:09:07;3.10;99.90
57108;DHT22;42987;52.916;6.542;2023-02-28T04:12:00;3.10;99.90
57108;DHT22;42987;52.916;6.542;2023-02-28T04:14:26;3.00;99.90
57108;DHT22;42987;52.916;6.542;2023-02-28T04:16:52;3.10;99.90
57108;DHT22;42987;52.916;6.542;2023-02-28T04:19:21;3.20;99.90
57108;DHT22;42987;52.916;6.542;2023-02-28T04:21:51;3.10;99.90
57108;DHT22;42987;52.916;6.542;2023-02-28T04:24:23;3.10;99.90
57108;DHT22;42987;52.916;6.542;2023-02-28T04:26:52;3.10;99.90
57108;DHT22;42987;52.916;6.542;2023-02-28T04:29:30;3.10;99.90
57108;DHT22;42987;52.916;6.542;2023-02-28T04:31:57;3.10;99.90
57108;DHT22;42987;52.916;6.542;2023-02-28T04:34:28;3.00;99.90
57108;DHT22;42987;52.916;6.542;2023-02-28T04:36:55;3.00;99.90
57108;DHT22;42987;52.916;6.542;2023-02-28T04:39:22;3.00;99.90
57108;DHT22;42987;52.916;6.542;2023-02-28T04:41:48;3.00;99.90
57108;DHT22;42987;52.916;6.542;2023-02-28T04:44:14;2.90;99.90
57108;DHT22;42987;52.916;6.542;2023-02-28T04:46:40;2.90;99.90
57108;DHT22;42987;52.916;6.542;2023-02-28T04:49:07;2.90;99.90
57108;DHT22;42987;52.916;6.542;2023-02-28T04:51:36;2.90;99.90
57108;DHT22;42987;52.916;6.542;2023-02-28T04:54:02;2.90;99.90
57108;DHT22;42987;52.916;6.542;2023-02-28T04:56:27;2.90;99.90
57108;DHT22;42987;52.916;6.542;2023-02-28T04:58:53;2.90;99.90
57108;DHT22;42987;52.916;6.542;2023-02-28T05:01:23;2.90;99.90
57108;DHT22;42987;52.916;6.542;2023-02-28T05:03:51;2.90;99.90
57108;DHT22;42987;52.916;6.542;2023-02-28T05:06:18;2.90;99.90
57108;DHT22;42987;52.916;6.542;2023-02-28T05:08:46;2.90;99.90
57108;DHT22;42987;52.916;6.542;2023-02-28T05:11:18;2.90;99.90
57108;DHT22;42987;52.916;6.542;2023-02-28T05:13:44;2.90;99.90
57108;DHT22;42987;52.916;6.542;2023-02-28T05:16:10;2.90;99.90
57108;DHT22;42987;52.916;6.542;2023-02-28T05:18:37;2.80;99.90
57108;DHT22;42987;52.916;6.542;2023-02-28T05:21:03;2.80;99.90
57108;DHT22;42987;52.916;6.542;2023-02-28T05:23:29;2.80;99.90
57108;DHT22;42987;52.916;6.542;2023-02-28T05:25:55;2.80;99.90
57108;DHT22;42987;52.916;6.542;2023-02-28T05:28:21;2.80;99.90
57108;DHT22;42987;52.916;6.542;2023-02-28T05:30:47;2.80;99.90
57108;DHT22;42987;52.916;6.542;2023-02-28T05:33:13;2.80;99.90
57108;DHT22;42987;52.916;6.542;2023-02-28T05:35:40;2.80;99.90
57108;DHT22;42987;52.916;6.542;2023-02-28T05:38:06;2.80;99.90
57108;DHT22;42987;52.916;6.542;2023-02-28T05:40:32;2.70;99.90
57108;DHT22;42987;52.916;6.542;2023-02-28T05:42:58;2.70;99.90
57108;DHT22;42987;52.916;6.542;2023-02-28T05:45:27;2.70;99.90
57108;DHT22;42987;52.916;6.542;2023-02-28T05:47:54;2.70;99.90
57108;DHT22;42987;52.916;6.542;2023-02-28T05:50:20;2.70;99.90
57108;DHT22;42987;52.916;6.542;2023-02-28T05:52:50;2.70;99.90
57108;DHT22;42987;52.916;6.542;2023-02-28T05:55:16;2.70;99.90
57108;DHT22;42987;52.916;6.542;2023-02-28T05:57:42;2.60;99.90
57108;DHT22;42987;52.916;6.542;2023-02-28T06:00:09;2.60;99.90
57108;DHT22;42987;52.916;6.542;2023-02-28T06:02:35;2.60;99.90
57108;DHT22;42987;52.916;6.542;2023-02-28T06:05:01;2.60;99.90
57108;DHT22;42987;52.916;6.542;2023-02-28T06:07:27;2.60;99.90
57108;DHT22;42987;52.916;6.542;2023-02-28T06:09:53;2.60;99.90
57108;DHT22;42987;52.916;6.542;2023-02-28T06:12:18;2.60;99.90
57108;DHT22;42987;52.916;6.542;2023-02-28T06:14:44;2.60;99.90
57108;DHT22;42987;52.916;6.542;2023-02-28T06:17:10;2.70;99.90
57108;DHT22;42987;52.916;6.542;2023-02-28T06:19:37;2.60;99.90
57108;DHT22;42987;52.916;6.542;2023-02-28T06:22:04;2.60;99.90
57108;DHT22;42987;52.916;6.542;2023-02-28T06:24:30;2.60;99.90
57108;DHT22;42987;52.916;6.542;2023-02-28T06:26:57;2.60;99.90
57108;DHT22;42987;52.916;6.542;2023-02-28T06:29:24;2.50;99.90
57108;DHT22;42987;52.916;6.542;2023-02-28T06:31:50;2.50;99.90
57108;DHT22;42987;52.916;6.542;2023-02-28T06:34:16;2.50;99.90
57108;DHT22;42987;52.916;6.542;2023-02-28T06:36:42;2.60;99.90
57108;DHT22;42987;52.916;6.542;2023-02-28T06:39:09;2.50;99.90
57108;DHT22;42987;52.916;6.542;2023-02-28T06:41:35;2.50;99.90
57108;DHT22;42987;52.916;6.542;2023-02-28T06:44:12;2.50;99.90
57108;DHT22;42987;52.916;6.542;2023-02-28T06:46:42;2.60;99.90
57108;DHT22;42987;52.916;6.542;2023-02-28T06:49:09;2.60;99.90
57108;DHT22;42987;52.916;6.542;2023-02-28T06:51:39;2.60;99.90
57108;DHT22;42987;52.916;6.542;2023-02-28T06:54:05;2.60;99.90
57108;DHT22;42987;52.916;6.542;2023-02-28T06:56:35;2.60;99.90
57108;DHT22;42987;52.916;6.542;2023-02-28T06:59:01;2.60;99.90
57108;DHT22;42987;52.916;6.542;2023-02-28T07:01:27;2.70;99.90
57108;DHT22;42987;52.916;6.542;2023-02-28T07:03:54;2.60;99.90
57108;DHT22;42987;52.916;6.542;2023-02-28T07:06:21;2.60;99.90
57108;DHT22;42987;52.916;6.542;2023-02-28T07:08:51;2.60;99.90
57108;DHT22;42987;52.916;6.542;2023-02-28T07:11:22;2.60;99.90
57108;DHT22;42987;52.916;6.542;2023-02-28T07:13:52;2.60;99.90
57108;DHT22;42987;52.916;6.542;2023-02-28T07:16:18;2.60;99.90
57108;DHT22;42987;52.916;6.542;2023-02-28T07:18:44;2.70;99.90
57108;DHT22;42987;52.916;6.542;2023-02-28T07:21:10;2.60;99.90
57108;DHT22;42987;52.916;6.542;2023-02-28T07:23:37;2.60;99.90
57108;DHT22;42987;52.916;6.542;2023-02-28T07:26:04;2.70;99.90
57108;DHT22;42987;52.916;6.542;2023-02-28T07:28:30;2.70;99.90
57108;DHT22;42987;52.916;6.542;2023-02-28T07:30:56;2.70;99.90
57108;DHT22;42987;52.916;6.542;2023-02-28T07:33:22;2.70;99.90
57108;DHT22;42987;52.916;6.542;2023-02-28T07:35:49;2.70;99.90
57108;DHT22;42987;52.916;6.542;2023-02-28T07:38:15;2.70;99.90
57108;DHT22;42987;52.916;6.542;2023-02-28T07:40:41;2.70;99.90
57108;DHT22;42987;52.916;6.542;2023-02-28T07:43:07;2.70;99.90
57108;DHT22;42987;52.916;6.542;2023-02-28T07:45:33;2.70;99.90
57108;DHT22;42987;52.916;6.542;2023-02-28T07:48:00;2.70;99.90
57108;DHT22;42987;52.916;6.542;2023-02-28T07:50:26;2.70;99.90
57108;DHT22;42987;52.916;6.542;2023-02-28T07:52:57;2.80;99.90
57108;DHT22;42987;52.916;6.542;2023-02-28T07:55:23;2.80;99.90
57108;DHT22;42987;52.916;6.542;2023-02-28T07:57:49;2.80;99.90
57108;DHT22;42987;52.916;6.542;2023-02-28T08:00:15;2.80;99.90
57108;DHT22;42987;52.916;6.542;2023-02-28T08:02:41;2.80;99.90
57108;DHT22;42987;52.916;6.542;2023-02-28T08:05:08;2.80;99.90
57108;DHT22;42987;52.916;6.542;2023-02-28T08:07:34;2.80;99.90
57108;DHT22;42987;52.916;6.542;2023-02-28T08:10:00;2.90;99.90
57108;DHT22;42987;52.916;6.542;2023-02-28T08:12:26;2.90;99.90
57108;DHT22;42987;52.916;6.542;2023-02-28T08:14:52;2.90;99.90
57108;DHT22;42987;52.916;6.542;2023-02-28T08:17:18;2.90;99.90
57108;DHT22;42987;52.916;6.542;2023-02-28T08:19:47;2.90;99.90
57108;DHT22;42987;52.916;6.542;2023-02-28T08:22:13;2.90;99.90
57108;DHT22;42987;52.916;6.542;2023-02-28T08:24:41;2.90;99.90
57108;DHT22;42987;52.916;6.542;2023-02-28T08:27:08;2.90;99.90
57108;DHT22;42987;52.916;6.542;2023-02-28T08:29:34;3.00;99.90
57108;DHT22;42987;52.916;6.542;2023-02-28T08:32:02;3.10;99.90
57108;DHT22;42987;52.916;6.542;2023-02-28T08:34:27;3.20;99.90
57108;DHT22;42987;52.916;6.542;2023-02-28T08:36:53;3.20;99.90
57108;DHT22;42987;52.916;6.542;2023-02-28T08:39:19;3.30;99.90
57108;DHT22;42987;52.916;6.542;2023-02-28T08:41:45;3.30;99.90
57108;DHT22;42987;52.916;6.542;2023-02-28T08:44:11;3.30;99.90
57108;DHT22;42987;52.916;6.542;2023-02-28T08:46:37;3.30;99.90
57108;DHT22;42987;52.916;6.542;2023-02-28T08:49:03;3.30;99.90
57108;DHT22;42987;52.916;6.542;2023-02-28T08:51:29;3.40;99.90
57108;DHT22;42987;52.916;6.542;2023-02-28T08:53:58;3.40;99.90
57108;DHT22;42987;52.916;6.542;2023-02-28T08:56:26;3.40;99.90
57108;DHT22;42987;52.916;6.542;2023-02-28T08:58:52;3.40;99.90
57108;DHT22;42987;52.916;6.542;2023-02-28T09:01:24;3.50;99.90
57108;DHT22;42987;52.916;6.542;2023-02-28T09:03:52;3.50;99.90
57108;DHT22;42987;52.916;6.542;2023-02-28T09:06:21;3.60;99.90
57108;DHT22;42987;52.916;6.542;2023-02-28T09:08:47;3.70;99.90
57108;DHT22;42987;52.916;6.542;2023-02-28T09:11:13;3.70;99.90
57108;DHT22;42987;52.916;6.542;2023-02-28T09:13:40;3.80;99.90
57108;DHT22;42987;52.916;6.542;2023-02-28T09:16:11;3.80;99.90
57108;DHT22;42987;52.916;6.542;2023-02-28T09:18:38;3.90;99.90
57108;DHT22;42987;52.916;6.542;2023-02-28T09:21:09;4.00;99.90
57108;DHT22;42987;52.916;6.542;2023-02-28T09:23:36;4.10;99.90
57108;DHT22;42987;52.916;6.542;2023-02-28T09:26:04;4.10;99.90
57108;DHT22;42987;52.916;6.542;2023-02-28T09:28:30;4.20;99.90
57108;DHT22;42987;52.916;6.542;2023-02-28T09:30:56;4.10;99.90
57108;DHT22;42987;52.916;6.542;2023-02-28T09:33:25;4.10;99.90
57108;DHT22;42987;52.916;6.542;2023-02-28T09:35:58;4.20;99.90
57108;DHT22;42987;52.916;6.542;2023-02-28T09:38:25;4.30;99.90
57108;DHT22;42987;52.916;6.542;2023-02-28T09:40:54;4.40;99.90
57108;DHT22;42987;52.916;6.542;2023-02-28T09:43:23;4.50;99.90
57108;DHT22;42987;52.916;6.542;2023-02-28T09:45:59;4.60;99.90
57108;DHT22;42987;52.916;6.542;2023-02-28T09:48:41;4.70;99.90
57108;DHT22;42987;52.916;6.542;2023-02-28T09:53:53;4.90;99.90
57108;DHT22;42987;52.916;6.542;2023-02-28T09:56:33;5.00;99.90
57108;DHT22;42987;52.916;6.542;2023-02-28T09:59:05;5.00;99.90
57108;DHT22;42987;52.916;6.542;2023-02-28T10:06:53;5.20;99.90
57108;DHT22;42987;52.916;6.542;2023-02-28T10:09:24;5.30;99.90
57108;DHT22;42987;52.916;6.542;2023-02-28T10:11:52;5.30;99.90
57108;DHT22;42987;52.916;6.542;2023-02-28T10:14:21;5.40;99.90
57108;DHT22;42987;52.916;6.542;2023-02-28T10:16:48;5.50;99.90
57108;DHT22;42987;52.916;6.542;2023-02-28T10:19:26;5.50;99.90
57108;DHT22;42987;52.916;6.542;2023-02-28T10:24:49;5.60;99.90
57108;DHT22;42987;52.916;6.542;2023-02-28T10:27:28;5.50;99.90
57108;DHT22;42987;52.916;6.542;2023-02-28T10:30:05;5.50;99.90
57108;DHT22;42987;52.916;6.542;2023-02-28T10:32:35;5.50;99.90
57108;DHT22;42987;52.916;6.542;2023-02-28T10:37:45;5.30;99.90
57108;DHT22;42987;52.916;6.542;2023-02-28T10:45:20;5.30;99.90
57108;DHT22;42987;52.916;6.542;2023-02-28T10:47:59;5.40;99.90
57108;DHT22;42987;52.916;6.542;2023-02-28T10:56:03;5.80;99.90
57108;DHT22;42987;52.916;6.542;2023-02-28T11:01:24;6.00;99.90
57108;DHT22;42987;52.916;6.542;2023-02-28T11:03:52;6.00;99.90
57108;DHT22;42987;52.916;6.542;2023-02-28T11:08:52;6.20;99.90
57108;DHT22;42987;52.916;6.542;2023-02-28T11:11:18;6.30;99.90
57108;DHT22;42987;52.916;6.542;2023-02-28T11:13:47;6.30;99.90
57108;DHT22;42987;52.916;6.542;2023-02-28T11:16:15;6.20;99.90
57108;DHT22;42987;52.916;6.542;2023-02-28T11:18:44;6.30;99.90
57108;DHT22;42987;52.916;6.542;2023-02-28T11:21:18;6.30;99.90
57108;DHT22;42987;52.916;6.542;2023-02-28T11:23:45;6.40;99.90
57108;DHT22;42987;52.916;6.542;2023-02-28T11:26:35;6.40;99.90
57108;DHT22;42987;52.916;6.542;2023-02-28T11:29:16;6.40;99.90
57108;DHT22;42987;52.916;6.542;2023-02-28T11:32:16;6.40;99.90
57108;DHT22;42987;52.916;6.542;2023-02-28T11:34:44;6.50;99.90
57108;DHT22;42987;52.916;6.542;2023-02-28T11:37:16;6.60;99.90
57108;DHT22;42987;52.916;6.542;2023-02-28T11:39:44;6.60;99.90
57108;DHT22;42987;52.916;6.542;2023-02-28T11:42:36;6.60;99.90
57108;DHT22;42987;52.916;6.542;2023-02-28T12:05:01;6.30;99.90
57108;DHT22;42987;52.916;6.542;2023-02-28T12:08:04;6.30;99.90
57108;DHT22;42987;52.916;6.542;2023-02-28T12:19:07;6.70;99.90
57108;DHT22;42987;52.916;6.542;2023-02-28T12:24:23;6.90;99.90
57108;DHT22;42987;52.916;6.542;2023-02-28T12:26:51;6.90;99.90
57108;DHT22;42987;52.916;6.542;2023-02-28T12:29:29;7.00;99.90
57108;DHT22;42987;52.916;6.542;2023-02-28T12:32:01;7.20;99.90
57108;DHT22;42987;52.916;6.542;2023-02-28T12:34:39;7.30;99.90
57108;DHT22;42987;52.916;6.542;2023-02-28T12:37:12;7.40;99.40
57108;DHT22;42987;52.916;6.542;2023-02-28T12:39:54;7.40;98.90
57108;DHT22;42987;52.916;6.542;2023-02-28T12:42:28;7.40;97.60
57108;DHT22;42987;52.916;6.542;2023-02-28T12:45:02;7.50;98.50
57108;DHT22;42987;52.916;6.542;2023-02-28T12:47:38;7.60;99.10
57108;DHT22;42987;52.916;6.542;2023-02-28T12:50:08;7.70;99.30
57108;DHT22;42987;52.916;6.542;2023-02-28T12:55:45;7.90;95.20
57108;DHT22;42987;52.916;6.542;2023-02-28T12:58:38;7.90;93.50
57108;DHT22;42987;52.916;6.542;2023-02-28T13:01:32;7.90;92.50
57108;DHT22;42987;52.916;6.542;2023-02-28T13:09:58;7.60;90.10
57108;DHT22;42987;52.916;6.542;2023-02-28T13:12:25;7.30;90.40
57108;DHT22;42987;52.916;6.542;2023-02-28T13:17:31;7.00;90.20
57108;DHT22;42987;52.916;6.542;2023-02-28T13:19:58;7.00;90.00
57108;DHT22;42987;52.916;6.542;2023-02-28T13:22:44;7.00;90.60
57108;DHT22;42987;52.916;6.542;2023-02-28T13:27:56;7.30;91.70
57108;DHT22;42987;52.916;6.542;2023-02-28T13:36:24;7.60;89.90
57108;DHT22;42987;52.916;6.542;2023-02-28T13:38:54;7.70;88.80
57108;DHT22;42987;52.916;6.542;2023-02-28T13:44:21;7.50;90.40
57108;DHT22;42987;52.916;6.542;2023-02-28T13:49:27;7.60;90.50
57108;DHT22;42987;52.916;6.542;2023-02-28T13:52:15;7.70;90.80
57108;DHT22;42987;52.916;6.542;2023-02-28T13:54:52;7.80;90.50
57108;DHT22;42987;52.916;6.542;2023-02-28T13:57:33;7.80;90.40
57108;DHT22;42987;52.916;6.542;2023-02-28T14:05:37;8.00;89.40
57108;DHT22;42987;52.916;6.542;2023-02-28T14:10:42;8.00;90.90
57108;DHT22;42987;52.916;6.542;2023-02-28T14:16:04;8.10;85.80
57108;DHT22;42987;52.916;6.542;2023-02-28T14:18:51;8.00;86.30
57108;DHT22;42987;52.916;6.542;2023-02-28T14:29:37;7.90;84.60
57108;DHT22;42987;52.916;6.542;2023-02-28T14:32:27;7.70;86.10
57108;DHT22;42987;52.916;6.542;2023-02-28T14:37:30;7.50;86.10
57108;DHT22;42987;52.916;6.542;2023-02-28T14:39:59;7.40;87.00
57108;DHT22;42987;52.916;6.542;2023-02-28T14:42:33;7.50;88.00
57108;DHT22;42987;52.916;6.542;2023-02-28T14:44:59;7.60;87.60
57108;DHT22;42987;52.916;6.542;2023-02-28T14:47:30;7.60;87.50
57108;DHT22;42987;52.916;6.542;2023-02-28T14:49:58;7.50;87.90
57108;DHT22;42987;52.916;6.542;2023-02-28T14:52:27;7.50;88.60
57108;DHT22;42987;52.916;6.542;2023-02-28T14:55:00;7.60;86.90
57108;DHT22;42987;52.916;6.542;2023-02-28T14:57:31;7.60;86.10
57108;DHT22;42987;52.916;6.542;2023-02-28T15:02:36;7.40;86.50
57108;DHT22;42987;52.916;6.542;2023-02-28T15:07:44;7.40;88.60
57108;DHT22;42987;52.916;6.542;2023-02-28T15:15:19;7.40;87.00
57108;DHT22;42987;52.916;6.542;2023-02-28T15:17:52;7.40;86.00
57108;DHT22;42987;52.916;6.542;2023-02-28T15:20:22;7.40;84.90
57108;DHT22;42987;52.916;6.542;2023-02-28T15:22:50;7.30;85.80
57108;DHT22;42987;52.916;6.542;2023-02-28T15:25:22;7.40;85.30
57108;DHT22;42987;52.916;6.542;2023-02-28T15:27:51;7.30;84.20
57108;DHT22;42987;52.916;6.542;2023-02-28T15:30:20;7.30;86.50
57108;DHT22;42987;52.916;6.542;2023-02-28T15:35:37;7.30;87.20
57108;DHT22;42987;52.916;6.542;2023-02-28T15:40:44;7.20;89.60
57108;DHT22;42987;52.916;6.542;2023-02-28T15:43:15;7.20;90.10
57108;DHT22;42987;52.916;6.542;2023-02-28T15:45:52;7.20;89.20
57108;DHT22;42987;52.916;6.542;2023-02-28T15:48:24;7.10;89.70
57108;DHT22;42987;52.916;6.542;2023-02-28T15:50:54;7.10;90.30
57108;DHT22;42987;52.916;6.542;2023-02-28T15:53:27;7.10;89.10
57108;DHT22;42987;52.916;6.542;2023-02-28T15:58:47;7.00;88.90
57108;DHT22;42987;52.916;6.542;2023-02-28T16:01:28;6.90;89.10
57108;DHT22;42987;52.916;6.542;2023-02-28T16:03:59;7.00;88.30
57108;DHT22;42987;52.916;6.542;2023-02-28T16:09:00;6.90;86.60
57108;DHT22;42987;52.916;6.542;2023-02-28T16:11:26;6.80;86.80
57108;DHT22;42987;52.916;6.542;2023-02-28T16:13:52;6.80;88.10
57108;DHT22;42987;52.916;6.542;2023-02-28T16:16:21;6.70;89.20
57108;DHT22;42987;52.916;6.542;2023-02-28T16:18:47;6.70;90.00
57108;DHT22;42987;52.916;6.542;2023-02-28T16:21:13;6.70;90.40
57108;DHT22;42987;52.916;6.542;2023-02-28T16:23:39;6.70;90.80
57108;DHT22;42987;52.916;6.542;2023-02-28T16:26:05;6.60;90.80
57108;DHT22;42987;52.916;6.542;2023-02-28T16:28:35;6.60;91.00
57108;DHT22;42987;52.916;6.542;2023-02-28T16:31:05;6.60;91.40
57108;DHT22;42987;52.916;6.542;2023-02-28T16:33:32;6.60;91.70
57108;DHT22;42987;52.916;6.542;2023-02-28T16:35:59;6.60;92.00
57108;DHT22;42987;52.916;6.542;2023-02-28T16:38:25;6.50;92.10
57108;DHT22;42987;52.916;6.542;2023-02-28T16:40:53;6.60;92.10
57108;DHT22;42987;52.916;6.542;2023-02-28T16:43:24;6.50;92.60
57108;DHT22;42987;52.916;6.542;2023-02-28T16:45:58;6.50;92.70
57108;DHT22;42987;52.916;6.542;2023-02-28T16:48:25;6.40;92.90
57108;DHT22;42987;52.916;6.542;2023-02-28T16:50:51;6.40;93.20
57108;DHT22;42987;52.916;6.542;2023-02-28T16:53:17;6.30;93.60
57108;DHT22;42987;52.916;6.542;2023-02-28T16:55:43;6.20;93.80
57108;DHT22;42987;52.916;6.542;2023-02-28T16:58:14;6.20;94.10
57108;DHT22;42987;52.916;6.542;2023-02-28T17:00:41;6.10;94.40
57108;DHT22;42987;52.916;6.542;2023-02-28T17:03:24;6.00;94.80
57108;DHT22;42987;52.916;6.542;2023-02-28T17:05:51;5.90;95.00
57108;DHT22;42987;52.916;6.542;2023-02-28T17:08:17;5.80;95.40
57108;DHT22;42987;52.916;6.542;2023-02-28T17:10:43;5.80;95.70
57108;DHT22;42987;52.916;6.542;2023-02-28T17:13:09;5.70;95.90
57108;DHT22;42987;52.916;6.542;2023-02-28T17:15:35;5.70;96.10
57108;DHT22;42987;52.916;6.542;2023-02-28T17:18:02;5.60;96.30
57108;DHT22;42987;52.916;6.542;2023-02-28T17:20:29;5.60;96.70
57108;DHT22;42987;52.916;6.542;2023-02-28T17:22:56;5.50;97.00
57108;DHT22;42987;52.916;6.542;2023-02-28T17:25:23;5.50;97.20
57108;DHT22;42987;52.916;6.542;2023-02-28T17:27:49;5.40;97.40
57108;DHT22;42987;52.916;6.542;2023-02-28T17:30:35;5.30;97.60
57108;DHT22;42987;52.916;6.542;2023-02-28T17:33:01;5.30;97.80
57108;DHT22;42987;52.916;6.542;2023-02-28T17:35:27;5.20;98.30
57108;DHT22;42987;52.916;6.542;2023-02-28T17:37:53;5.10;98.50
57108;DHT22;42987;52.916;6.542;2023-02-28T17:40:21;5.00;98.60
57108;DHT22;42987;52.916;6.542;2023-02-28T17:42:47;5.00;98.90
57108;DHT22;42987;52.916;6.542;2023-02-28T17:45:17;4.90;99.00
57108;DHT22;42987;52.916;6.542;2023-02-28T17:47:46;4.90;99.10
57108;DHT22;42987;52.916;6.542;2023-02-28T17:50:19;4.90;99.30
57108;DHT22;42987;52.916;6.542;2023-02-28T17:52:45;4.80;99.30
57108;DHT22;42987;52.916;6.542;2023-02-28T17:55:12;4.70;99.60
57108;DHT22;42987;52.916;6.542;2023-02-28T17:57:38;4.70;99.70
57108;DHT22;42987;52.916;6.542;2023-02-28T18:00:05;4.60;99.90
57108;DHT22;42987;52.916;6.542;2023-02-28T18:02:34;4.60;99.90
57108;DHT22;42987;52.916;6.542;2023-02-28T18:05:00;4.50;99.90
57108;DHT22;42987;52.916;6.542;2023-02-28T18:07:26;4.50;99.90
57108;DHT22;42987;52.916;6.542;2023-02-28T18:09:51;4.40;99.90
57108;DHT22;42987;52.916;6.542;2023-02-28T18:12:17;4.30;99.90
57108;DHT22;42987;52.916;6.542;2023-02-28T18:14:43;4.20;99.90
57108;DHT22;42987;52.916;6.542;2023-02-28T18:17:11;4.10;99.90
57108;DHT22;42987;52.916;6.542;2023-02-28T18:19:38;4.00;99.90
57108;DHT22;42987;52.916;6.542;2023-02-28T18:22:04;3.90;99.90
57108;DHT22;42987;52.916;6.542;2023-02-28T18:24:33;3.80;99.90
57108;DHT22;42987;52.916;6.542;2023-02-28T18:26:59;3.70;99.90
57108;DHT22;42987;52.916;6.542;2023-02-28T18:29:28;3.60;99.90
57108;DHT22;42987;52.916;6.542;2023-02-28T18:31:57;3.50;99.90
57108;DHT22;42987;52.916;6.542;2023-02-28T18:34:27;3.50;99.90
57108;DHT22;42987;52.916;6.542;2023-02-28T18:36:52;3.40;99.90
57108;DHT22;42987;52.916;6.542;2023-02-28T18:39:19;3.30;99.90